Terminal Aerodrome Forecast
Issued by NWS Wilmington, OH

Current Version | Previous Version | Text Only | Print | Product List | Glossary On
Versions: 1 2 3 4 5 6 7 8 9 10 11 12 13 14 15 16 17 18 19
527
FTUS41 KILN 250544
TAFDAY
TAF
KDAY 250544Z 2506/2606 13005KT P6SM VCSH SCT006 OVC015
     FM251000 19006KT 6SM -SHRA OVC011
     FM251400 25006KT 6SM -SHRA OVC015
     FM251800 30009KT P6SM VCSH OVC025
     FM260300 28008KT P6SM SCT025=

USA.gov is the U.S. government's official web portal to all federal, state and local government web resources and services.